Time,TemperatureF,DewpointF,PressureIn,WindDirection,WindDirectionDegrees,WindSpeedMPH,WindSpeedGustMPH,Humidity,HourlyPrecipIn,Conditions,Clouds,dailyrainin,SoftwareType,DateUTC
2013-09-12 00:07:00,69.6,65.8,30.22,South,180,0.0,0.0,88,0.00,,,0.00,meteobridge,2013-09-12 04:07:00,
2013-09-12 00:18:00,69.6,65.8,30.21,South,180,0.0,0.0,88,0.00,,,0.00,meteobridge,2013-09-12 04:18:00,
2013-09-12 00:30:00,69.4,66.0,30.21,South,180,0.0,-999.0,89,0.00,,,0.00,meteobridge,2013-09-12 04:30:00,
2013-09-12 00:40:00,69.3,65.8,30.20,South,180,0.0,0.0,89,0.00,,,0.00,meteobridge,2013-09-12 04:40:00,
2013-09-12 00:50:00,69.1,66.0,30.21,South,180,0.0,0.0,90,0.00,,,0.00,meteobridge,2013-09-12 04:50:00,
2013-09-12 01:01:00,69.1,65.7,30.20,South,180,0.0,0.0,89,0.00,,,0.00,meteobridge,2013-09-12 05:01:00,
2013-09-12 01:11:00,68.9,65.8,30.20,South,180,0.0,0.0,90,0.00,,,0.00,meteobridge,2013-09-12 05:11:00,
2013-09-12 01:22:00,68.7,65.7,30.19,South,180,0.0,0.0,90,0.00,,,0.00,meteobridge,2013-09-12 05:22:00,
2013-09-12 01:32:00,68.5,65.8,30.19,South,180,0.0,0.0,91,0.00,,,0.00,meteobridge,2013-09-12 05:32:00,
2013-09-12 01:43:00,68.4,65.7,30.19,South,180,0.0,-999.0,91,0.00,,,0.00,meteobridge,2013-09-12 05:43:00,
2013-09-12 01:53:00,68.4,65.7,30.19,South,180,0.0,-999.0,91,0.00,,,0.00,meteobridge,2013-09-12 05:53:00,
2013-09-12 02:04:00,68.2,65.5,30.19,South,180,0.0,0.0,91,0.00,,,0.00,meteobridge,2013-09-12 06:04:00,
2013-09-12 02:14:00,68.0,65.7,30.19,South,180,0.0,-999.0,92,0.00,,,0.00,meteobridge,2013-09-12 06:14:00,
2013-09-12 02:24:00,67.8,65.7,30.19,South,180,0.0,0.0,93,0.00,,,0.00,meteobridge,2013-09-12 06:24:00,
2013-09-12 02:34:00,68.2,65.8,30.19,South,180,0.0,0.0,92,0.00,,,0.00,meteobridge,2013-09-12 06:34:00,
2013-09-12 02:45:00,68.0,65.7,30.19,South,180,0.0,0.0,92,0.00,,,0.00,meteobridge,2013-09-12 06:45:00,
2013-09-12 02:55:00,67.8,65.7,30.19,South,180,0.0,0.0,93,0.00,,,0.00,meteobridge,2013-09-12 06:55:00,
2013-09-12 03:05:00,67.6,65.5,30.19,South,180,0.0,0.0,93,0.00,,,0.00,meteobridge,2013-09-12 07:05:00,
2013-09-12 03:16:00,67.5,65.3,30.19,South,180,0.0,0.0,93,0.00,,,0.00,meteobridge,2013-09-12 07:16:00,
2013-09-12 03:27:00,67.5,65.7,30.19,South,180,0.0,0.0,94,0.00,,,0.00,meteobridge,2013-09-12 07:27:00,
2013-09-12 03:37:00,67.3,65.5,30.19,South,180,0.0,0.0,94,0.00,,,0.00,meteobridge,2013-09-12 07:37:00,
2013-09-12 03:48:00,67.3,65.5,30.19,South,180,0.0,0.0,94,0.00,,,0.00,meteobridge,2013-09-12 07:48:00,
2013-09-12 03:59:00,67.1,65.3,30.19,South,180,0.0,0.0,94,0.00,,,0.00,meteobridge,2013-09-12 07:59:00,
2013-09-12 04:09:00,66.9,65.1,30.18,South,180,0.0,0.0,94,0.00,,,0.00,meteobridge,2013-09-12 08:09:00,
2013-09-12 04:20:00,66.9,65.1,30.18,South,180,0.0,0.0,94,0.00,,,0.00,meteobridge,2013-09-12 08:20:00,
2013-09-12 04:30:00,67.1,65.3,30.18,South,180,0.0,0.0,94,0.00,,,0.00,meteobridge,2013-09-12 08:30:00,
2013-09-12 04:43:00,67.3,65.5,30.18,South,180,0.0,-999.0,94,0.00,,,0.00,meteobridge,2013-09-12 08:43:00,
2013-09-12 04:53:00,67.6,65.8,30.18,South,180,0.0,0.0,94,0.00,,,0.00,meteobridge,2013-09-12 08:53:00,
2013-09-12 05:03:00,67.6,65.8,30.18,South,180,0.0,0.0,94,0.00,,,0.00,meteobridge,2013-09-12 09:03:00,
2013-09-12 05:13:00,67.5,65.7,30.18,West,270,0.0,0.0,94,0.00,,,0.00,meteobridge,2013-09-12 09:13:00,
2013-09-12 05:23:00,67.6,65.8,30.18,West,270,0.0,0.0,94,0.00,,,0.00,meteobridge,2013-09-12 09:23:00,
2013-09-12 05:33:00,67.5,65.7,30.18,West,270,0.0,0.0,94,0.00,,,0.00,meteobridge,2013-09-12 09:33:00,
2013-09-12 05:43:00,67.3,65.5,30.18,West,270,0.0,0.0,94,0.00,,,0.00,meteobridge,2013-09-12 09:43:00,
2013-09-12 05:55:00,67.1,65.7,30.18,West,270,0.0,-999.0,95,0.00,,,0.00,meteobridge,2013-09-12 09:55:00,
2013-09-12 06:06:00,67.3,65.8,30.18,West,270,0.0,-999.0,95,0.00,,,0.00,meteobridge,2013-09-12 10:06:00,
2013-09-12 06:16:00,67.3,65.8,30.18,West,270,0.0,0.0,95,0.00,,,0.00,meteobridge,2013-09-12 10:16:00,
2013-09-12 06:27:00,67.3,65.8,30.18,West,270,0.0,0.0,95,0.00,,,0.00,meteobridge,2013-09-12 10:27:00,
2013-09-12 06:37:00,66.9,65.5,30.18,North,0,0.0,0.0,95,0.00,,,0.00,meteobridge,2013-09-12 10:37:00,
2013-09-12 06:48:00,66.9,65.5,30.18,North,0,0.0,-999.0,95,0.00,,,0.00,meteobridge,2013-09-12 10:48:00,
2013-09-12 07:00:00,66.7,65.3,30.18,North,0,0.0,0.0,95,0.00,,,0.00,meteobridge,2013-09-12 11:00:00,
2013-09-12 07:13:00,66.6,65.1,30.18,North,0,0.0,-999.0,95,0.00,,,0.00,meteobridge,2013-09-12 11:13:00,
2013-09-12 07:23:00,66.6,65.1,30.19,North,0,0.0,0.0,95,0.00,,,0.00,meteobridge,2013-09-12 11:23:00,
2013-09-12 07:34:00,66.4,64.9,30.19,North,0,0.0,0.0,95,0.00,,,0.00,meteobridge,2013-09-12 11:34:00,
2013-09-12 08:19:00,68.5,66.7,30.19,North,0,0.0,0.0,94,0.00,,,0.00,meteobridge,2013-09-12 12:19:00,
2013-09-12 08:29:00,70.0,67.8,30.19,North,0,0.0,0.0,93,0.00,,,0.00,meteobridge,2013-09-12 12:29:00,
2013-09-12 08:39:00,71.4,68.4,30.19,North,0,0.0,0.0,90,0.00,,,0.00,meteobridge,2013-09-12 12:39:00,
2013-09-12 08:49:00,72.5,67.1,30.19,North,0,0.0,0.0,83,0.00,,,0.00,meteobridge,2013-09-12 12:49:00,
2013-09-12 08:59:00,75.2,67.8,30.19,North,0,0.0,0.0,78,0.00,,,0.00,meteobridge,2013-09-12 12:59:00,
2013-09-12 09:09:00,75.2,67.1,30.19,North,0,0.7,1.6,76,0.00,,,0.00,meteobridge,2013-09-12 13:09:00,
2013-09-12 09:19:00,78.4,69.1,30.19,West,270,0.0,0.0,73,0.00,,,0.00,meteobridge,2013-09-12 13:19:00,
2013-09-12 09:30:00,78.3,68.5,30.19,West,270,0.0,0.0,72,0.00,,,0.00,meteobridge,2013-09-12 13:30:00,
2013-09-12 09:40:00,77.9,66.9,30.18,North,0,0.0,0.0,69,0.00,,,0.00,meteobridge,2013-09-12 13:40:00,
2013-09-12 09:50:00,79.9,68.0,30.18,North,0,0.0,0.0,67,0.00,,,0.00,meteobridge,2013-09-12 13:50:00,
2013-09-12 10:00:00,80.6,67.8,30.18,North,0,0.7,2.2,65,0.00,,,0.00,meteobridge,2013-09-12 14:00:00,
2013-09-12 10:10:00,81.0,67.6,30.19,NE,45,1.6,1.6,64,0.00,,,0.00,meteobridge,2013-09-12 14:10:00,
2013-09-12 10:20:00,84.7,69.3,30.18,North,0,1.6,2.2,60,0.00,,,0.00,meteobridge,2013-09-12 14:20:00,
2013-09-12 10:30:00,83.8,68.9,30.18,West,270,0.0,2.2,61,0.00,,,0.00,meteobridge,2013-09-12 14:30:00,
2013-09-12 10:40:00,82.4,68.5,30.17,South,180,1.6,2.2,63,0.00,,,0.00,meteobridge,2013-09-12 14:40:00,
2013-09-12 10:50:00,86.4,70.3,30.18,South,180,2.2,2.2,59,0.00,,,0.00,meteobridge,2013-09-12 14:50:00,
2013-09-12 11:00:00,88.9,70.7,30.18,South,180,2.2,2.2,55,0.00,,,0.00,meteobridge,2013-09-12 15:00:00,
2013-09-12 11:11:00,87.3,70.7,30.17,West,270,3.1,3.1,58,0.00,,,0.00,meteobridge,2013-09-12 15:11:00,
2013-09-12 11:21:00,86.9,69.8,30.17,South,180,3.8,3.8,57,0.00,,,0.00,meteobridge,2013-09-12 15:21:00,
2013-09-12 11:31:00,88.5,70.3,30.17,South,180,2.2,2.2,55,0.00,,,0.00,meteobridge,2013-09-12 15:31:00,
2013-09-12 11:41:00,87.3,70.7,30.17,South,180,1.6,5.4,58,0.00,,,0.00,meteobridge,2013-09-12 15:41:00,
2013-09-12 11:51:00,87.1,70.0,30.17,North,0,4.5,4.5,57,0.00,,,0.00,meteobridge,2013-09-12 15:51:00,
2013-09-12 12:01:00,88.9,71.1,30.17,South,180,2.2,2.2,56,0.00,,,0.00,meteobridge,2013-09-12 16:01:00,
2013-09-12 12:11:00,89.4,71.6,30.16,South,180,2.2,2.2,56,0.00,,,0.00,meteobridge,2013-09-12 16:11:00,
2013-09-12 12:21:00,88.9,70.7,30.16,South,180,2.2,3.8,55,0.00,,,0.00,meteobridge,2013-09-12 16:21:00,
2013-09-12 12:31:00,88.2,70.5,30.16,West,270,3.1,3.1,56,0.00,,,0.00,meteobridge,2013-09-12 16:31:00,
2013-09-12 12:42:00,89.1,70.7,30.16,South,180,5.4,5.4,55,0.00,,,0.00,meteobridge,2013-09-12 16:42:00,
2013-09-12 12:52:00,89.2,70.3,30.15,South,180,1.6,2.2,54,0.00,,,0.00,meteobridge,2013-09-12 16:52:00,
2013-09-12 13:02:00,87.4,69.8,30.14,North,0,1.6,3.8,56,0.00,,,0.00,meteobridge,2013-09-12 17:02:00,
2013-09-12 13:12:00,89.2,70.3,30.14,South,180,3.1,3.1,54,0.00,,,0.00,meteobridge,2013-09-12 17:12:00,
2013-09-12 13:22:00,89.8,70.9,30.14,North,0,3.1,3.1,54,0.00,,,0.00,meteobridge,2013-09-12 17:22:00,
2013-09-12 13:32:00,90.0,71.1,30.14,SE,135,1.6,3.1,54,0.00,,,0.00,meteobridge,2013-09-12 17:32:00,
2013-09-12 13:42:00,90.0,71.1,30.13,North,0,2.2,2.2,54,0.00,,,0.00,meteobridge,2013-09-12 17:42:00,
2013-09-12 13:52:00,89.4,70.0,30.13,South,180,2.2,2.2,53,0.00,,,0.00,meteobridge,2013-09-12 17:52:00,
2013-09-12 14:02:00,89.2,69.8,30.12,NE,45,2.2,2.2,53,0.00,,,0.00,meteobridge,2013-09-12 18:02:00,
2013-09-12 14:12:00,91.9,71.8,30.12,South,180,1.6,1.6,52,0.00,,,0.00,meteobridge,2013-09-12 18:12:00,
2013-09-12 14:23:00,90.7,70.0,30.11,North,0,2.2,3.8,51,0.00,,,0.00,meteobridge,2013-09-12 18:23:00,
2013-09-12 14:33:00,90.9,70.9,30.10,South,180,6.0,6.0,52,0.00,,,0.00,meteobridge,2013-09-12 18:33:00,
2013-09-12 14:43:00,90.3,70.3,30.10,SE,135,3.1,3.8,52,0.00,,,0.00,meteobridge,2013-09-12 18:43:00,
2013-09-12 14:53:00,89.8,69.8,30.09,SE,135,3.8,3.8,52,0.00,,,0.00,meteobridge,2013-09-12 18:53:00,
2013-09-12 15:03:00,88.5,69.3,30.10,North,0,3.1,3.8,53,0.00,,,0.00,meteobridge,2013-09-12 19:03:00,
2013-09-12 15:13:00,86.9,69.3,30.09,North,0,3.8,3.8,56,0.00,,,0.00,meteobridge,2013-09-12 19:13:00,
2013-09-12 15:23:00,86.9,69.3,30.08,South,180,0.0,0.0,56,0.00,,,0.00,meteobridge,2013-09-12 19:23:00,
2013-09-12 15:33:00,86.0,68.9,30.08,South,180,1.6,1.6,57,0.00,,,0.00,meteobridge,2013-09-12 19:33:00,
2013-09-12 15:43:00,85.6,69.1,30.08,South,180,0.0,3.8,58,0.00,,,0.00,meteobridge,2013-09-12 19:43:00,
2013-09-12 15:53:00,86.5,69.4,30.07,South,180,0.7,3.1,57,0.00,,,0.00,meteobridge,2013-09-12 19:53:00,
2013-09-12 16:04:00,86.9,69.3,30.07,South,180,2.2,2.2,56,0.00,,,0.00,meteobridge,2013-09-12 20:04:00,
2013-09-12 16:14:00,87.3,69.1,30.07,North,0,0.0,1.6,55,0.00,,,0.00,meteobridge,2013-09-12 20:14:00,
2013-09-12 16:24:00,87.3,68.5,30.06,North,0,0.0,0.0,54,0.00,,,0.00,meteobridge,2013-09-12 20:24:00,
2013-09-12 16:34:00,87.3,68.5,30.06,South,180,1.6,2.2,54,0.00,,,0.00,meteobridge,2013-09-12 20:34:00,
2013-09-12 16:44:00,87.4,69.3,30.05,South,180,1.6,1.6,55,0.00,,,0.00,meteobridge,2013-09-12 20:44:00,
2013-09-12 16:54:00,87.4,69.3,30.05,West,270,0.0,2.2,55,0.00,,,0.00,meteobridge,2013-09-12 20:54:00,
2013-09-12 17:04:00,86.9,68.7,30.04,South,180,3.1,3.1,55,0.00,,,0.00,meteobridge,2013-09-12 21:04:00,
2013-09-12 17:14:00,86.9,68.2,30.04,NE,45,0.0,2.2,54,0.00,,,0.00,meteobridge,2013-09-12 21:14:00,
2013-09-12 17:24:00,87.3,69.1,30.03,South,180,0.0,0.7,55,0.00,,,0.00,meteobridge,2013-09-12 21:24:00,
2013-09-12 17:34:00,88.2,70.0,30.04,North,0,3.1,3.1,55,0.00,,,0.00,meteobridge,2013-09-12 21:34:00,
2013-09-12 17:45:00,88.2,69.4,30.03,South,180,1.6,2.2,54,0.00,,,0.00,meteobridge,2013-09-12 21:45:00,
2013-09-12 17:55:00,87.8,69.6,30.03,South,180,1.6,1.6,55,0.00,,,0.00,meteobridge,2013-09-12 21:55:00,
2013-09-12 18:05:00,88.3,69.6,30.03,North,0,1.6,2.2,54,0.00,,,0.00,meteobridge,2013-09-12 22:05:00,
2013-09-12 18:15:00,87.8,69.1,30.02,South,180,2.2,3.1,54,0.00,,,0.00,meteobridge,2013-09-12 22:15:00,
2013-09-12 18:25:00,87.6,69.4,30.02,South,180,0.0,2.2,55,0.00,,,0.00,meteobridge,2013-09-12 22:25:00,
2013-09-12 18:35:00,86.4,69.3,30.02,South,180,0.0,0.7,57,0.00,,,0.00,meteobridge,2013-09-12 22:35:00,
2013-09-12 18:45:00,85.6,69.6,30.03,North,0,0.0,0.0,59,0.00,,,0.00,meteobridge,2013-09-12 22:45:00,
2013-09-12 18:55:00,85.1,69.6,30.03,North,0,0.0,0.0,60,0.00,,,0.00,meteobridge,2013-09-12 22:55:00,
2013-09-12 19:05:00,84.0,69.1,30.03,North,0,1.6,1.6,61,0.00,,,0.00,meteobridge,2013-09-12 23:05:00,
2013-09-12 19:16:00,84.0,69.6,30.03,North,0,0.0,0.0,62,0.00,,,0.00,meteobridge,2013-09-12 23:16:00,
2013-09-12 19:26:00,83.5,69.6,30.03,NE,45,0.7,0.7,63,0.00,,,0.00,meteobridge,2013-09-12 23:26:00,
2013-09-12 19:36:00,83.1,69.3,30.03,North,0,0.0,0.0,63,0.00,,,0.00,meteobridge,2013-09-12 23:36:00,
2013-09-12 19:46:00,80.6,68.5,30.03,South,180,1.6,3.1,67,0.00,,,0.00,meteobridge,2013-09-12 23:46:00,
2013-09-12 19:56:00,77.9,69.8,30.03,South,180,0.0,0.0,76,0.00,,,0.00,meteobridge,2013-09-12 23:56:00,
2013-09-12 20:06:00,77.2,69.4,30.03,South,180,0.0,0.0,77,0.00,,,0.00,meteobridge,2013-09-13 00:06:00,
2013-09-12 20:16:00,77.0,70.3,30.03,South,180,0.0,0.0,80,0.00,,,0.00,meteobridge,2013-09-13 00:16:00,
2013-09-12 20:26:00,76.8,70.5,30.03,South,180,0.0,0.0,81,0.00,,,0.00,meteobridge,2013-09-13 00:26:00,
2013-09-12 20:36:00,75.7,70.5,30.04,South,180,0.0,0.0,84,0.00,,,0.00,meteobridge,2013-09-13 00:36:00,
2013-09-12 20:46:00,75.6,70.3,30.04,South,180,0.0,0.0,84,0.00,,,0.00,meteobridge,2013-09-13 00:46:00,
2013-09-12 20:57:00,75.2,70.0,30.04,South,180,0.0,0.0,84,0.00,,,0.00,meteobridge,2013-09-13 00:57:00,
2013-09-12 21:07:00,74.8,70.3,30.04,South,180,0.0,0.0,86,0.00,,,0.00,meteobridge,2013-09-13 01:07:00,
2013-09-12 21:17:00,74.7,70.5,30.04,South,180,0.0,0.0,87,0.00,,,0.00,meteobridge,2013-09-13 01:17:00,
2013-09-12 21:27:00,74.5,70.3,30.04,South,180,0.0,0.0,87,0.00,,,0.00,meteobridge,2013-09-13 01:27:00,
2013-09-12 21:37:00,74.5,70.7,30.05,West,270,0.0,0.0,88,0.00,,,0.00,meteobridge,2013-09-13 01:37:00,
2013-09-12 21:47:00,74.5,71.1,30.04,West,270,0.0,0.0,89,0.00,,,0.00,meteobridge,2013-09-13 01:47:00,
2013-09-12 21:57:00,74.3,70.9,30.05,West,270,0.0,0.0,89,0.00,,,0.00,meteobridge,2013-09-13 01:57:00,
2013-09-12 22:07:00,74.3,70.9,30.05,West,270,0.0,0.0,89,0.00,,,0.00,meteobridge,2013-09-13 02:07:00,
2013-09-12 22:17:00,74.1,71.1,30.05,West,270,0.0,0.0,90,0.00,,,0.00,meteobridge,2013-09-13 02:17:00,
2013-09-12 22:27:00,73.9,70.9,30.05,West,270,0.0,0.0,90,0.00,,,0.00,meteobridge,2013-09-13 02:27:00,
2013-09-12 22:38:00,73.9,70.9,30.06,West,270,0.0,0.0,90,0.00,,,0.00,meteobridge,2013-09-13 02:38:00,
2013-09-12 22:48:00,73.9,70.9,30.05,West,270,0.0,0.0,90,0.00,,,0.00,meteobridge,2013-09-13 02:48:00,
2013-09-12 22:58:00,73.8,70.7,30.05,West,270,0.0,0.0,90,0.00,,,0.00,meteobridge,2013-09-13 02:58:00,
2013-09-12 23:08:00,73.8,70.7,30.05,West,270,0.0,0.0,90,0.00,,,0.00,meteobridge,2013-09-13 03:08:00,
2013-09-12 23:28:00,73.8,70.3,30.04,West,270,0.0,0.0,89,0.00,,,0.00,meteobridge,2013-09-13 03:28:00,
2013-09-12 23:38:00,73.8,70.3,30.05,West,270,0.0,0.0,89,0.00,,,0.00,meteobridge,2013-09-13 03:38:00,
2013-09-12 23:48:00,74.3,70.2,30.04,West,270,2.2,2.2,87,0.00,,,0.00,meteobridge,2013-09-13 03:48:00,
2013-09-12 23:58:00,75.6,69.6,30.04,South,180,3.1,3.1,82,0.00,,,0.00,meteobridge,2013-09-13 03:58:00,